createdAt,value
2022-10-19T00:01:16.023Z,15.60
2022-10-19T00:05:17.978Z,15.50
2022-10-19T00:09:19.648Z,15.10
2022-10-19T00:13:20.739Z,15.40
2022-10-19T00:17:21.717Z,15.60
2022-10-19T00:21:23.281Z,15.40
2022-10-19T00:25:24.211Z,15.40
2022-10-19T00:29:25.276Z,15.40
2022-10-19T00:33:26.225Z,15.50
2022-10-19T00:37:28.799Z,15.00
2022-10-19T00:41:31.893Z,14.60
2022-10-19T00:45:32.843Z,14.00
2022-10-19T00:49:37.623Z,13.90
2022-10-19T00:53:39.085Z,14.70
2022-10-19T00:57:40.246Z,14.80
2022-10-19T01:01:44.258Z,14.80
2022-10-19T01:05:45.343Z,14.40
2022-10-19T01:09:46.373Z,14.80
2022-10-19T01:14:20.490Z,14.50
2022-10-19T01:18:42.040Z,14.50
2022-10-19T01:23:05.911Z,14.50
2022-10-19T01:27:29.186Z,14.10
2022-10-19T01:31:52.437Z,14.00
2022-10-19T01:36:09.634Z,13.60
2022-10-19T01:40:14.311Z,14.00
2022-10-19T01:44:30.917Z,14.20
2022-10-19T01:48:35.706Z,14.20
2022-10-19T01:52:39.868Z,14.10
2022-10-19T01:56:44.126Z,14.00
2022-10-19T02:00:48.219Z,13.90
2022-10-19T02:04:51.346Z,13.50
2022-10-19T02:08:53.457Z,12.40
2022-10-19T02:12:55.199Z,13.20
2022-10-19T02:17:13.379Z,13.50
2022-10-19T02:21:14.914Z,13.50
2022-10-19T02:25:16.226Z,13.30
2022-10-19T02:29:17.587Z,13.50
2022-10-19T02:33:18.751Z,13.70
2022-10-19T02:37:22.127Z,13.60
2022-10-19T02:41:29.201Z,13.30
2022-10-19T02:45:37.382Z,13.10
2022-10-19T02:49:38.748Z,13.00
2022-10-19T02:53:39.952Z,13.20
2022-10-19T02:57:40.911Z,13.00
2022-10-19T03:01:41.952Z,12.30
2022-10-19T03:05:42.928Z,13.10
2022-10-19T03:09:44.197Z,13.30
2022-10-19T03:13:45.125Z,12.10
2022-10-19T03:17:46.149Z,12.90
2022-10-19T03:21:47.183Z,12.30
2022-10-19T03:25:48.157Z,12.20
2022-10-19T03:29:49.144Z,13.00
2022-10-19T03:33:50.430Z,12.80
2022-10-19T03:37:51.362Z,13.00
2022-10-19T03:41:52.311Z,13.00
2022-10-19T03:45:53.319Z,12.60
2022-10-19T03:49:54.465Z,13.20
2022-10-19T03:53:58.469Z,12.50
2022-10-19T03:57:59.511Z,12.30
2022-10-19T04:02:00.684Z,11.60
2022-10-19T04:06:10.865Z,12.80
2022-10-19T04:10:11.751Z,12.90
2022-10-19T04:14:22.854Z,12.50
2022-10-19T04:18:18.436Z,13.10
2022-10-19T04:22:19.301Z,13.00
2022-10-19T04:26:20.433Z,12.90
2022-10-19T04:30:21.423Z,12.80
2022-10-19T04:34:22.407Z,12.70
2022-10-19T04:38:23.285Z,12.70
2022-10-19T04:42:24.261Z,12.70
2022-10-19T04:46:26.791Z,11.80
2022-10-19T04:50:27.780Z,12.10
2022-10-19T04:54:28.727Z,11.80
2022-10-19T04:58:29.677Z,12.20
2022-10-19T05:02:30.708Z,11.80
2022-10-19T05:06:32.090Z,11.10
2022-10-19T05:10:33.204Z,10.70
2022-10-19T05:14:35.785Z,11.50
2022-10-19T05:18:36.942Z,12.20
2022-10-19T05:22:38.868Z,12.30
2022-10-19T05:26:39.861Z,12.50
2022-10-19T05:30:42.551Z,12.60
2022-10-19T05:34:43.656Z,12.60
2022-10-19T05:38:46.785Z,12.50
2022-10-19T05:42:47.886Z,12.60
2022-10-19T05:46:50.766Z,12.40
2022-10-19T05:50:53.737Z,12.20
2022-10-19T05:54:55.859Z,12.50
2022-10-19T05:58:59.293Z,12.50
2022-10-19T06:03:00.270Z,12.30
2022-10-19T06:07:01.394Z,12.20
2022-10-19T06:11:14.415Z,12.30
2022-10-19T06:15:15.898Z,11.40
2022-10-19T06:19:16.953Z,12.30
2022-10-19T06:23:18.335Z,12.70
2022-10-19T06:27:19.534Z,11.90
2022-10-19T06:31:20.717Z,11.30
2022-10-19T06:35:21.936Z,12.00
2022-10-19T06:39:23.144Z,12.50
2022-10-19T06:43:25.013Z,12.40
2022-10-19T06:47:27.906Z,12.60
2022-10-19T06:51:31.299Z,12.70
2022-10-19T06:55:32.281Z,13.00
2022-10-19T06:59:33.485Z,13.30
2022-10-19T07:03:36.032Z,13.40
2022-10-19T07:07:38.024Z,13.90
2022-10-19T07:11:45.556Z,13.70
2022-10-19T07:15:43.807Z,13.90
2022-10-19T07:19:44.942Z,14.00
2022-10-19T07:23:46.855Z,13.50
2022-10-19T07:27:47.822Z,11.60
2022-10-19T07:31:48.980Z,11.50
2022-10-19T07:35:50.098Z,10.10
2022-10-19T07:39:51.181Z,10.40
2022-10-19T07:43:53.200Z,11.00
2022-10-19T07:47:54.156Z,10.10
2022-10-19T07:51:55.920Z,10.40
2022-10-19T07:56:06.790Z,10.40
2022-10-19T08:00:09.897Z,10.90
2022-10-19T08:04:49.014Z,10.70
2022-10-19T08:08:14.183Z,10.50
2022-10-19T08:12:15.777Z,10.90
2022-10-19T08:16:24.454Z,10.80
2022-10-19T08:20:25.470Z,11.40
2022-10-19T08:24:26.582Z,12.50
2022-10-19T08:28:27.791Z,11.60
2022-10-19T08:32:28.945Z,11.20
2022-10-19T08:36:31.875Z,12.10
2022-10-19T08:40:33.353Z,11.40
2022-10-19T08:44:55.270Z,12.30
2022-10-19T08:48:56.577Z,13.80
2022-10-19T08:53:18.919Z,12.80
2022-10-19T08:57:43.882Z,12.50
2022-10-19T09:02:10.079Z,11.20
2022-10-19T09:06:26.239Z,11.90
2022-10-19T09:10:31.276Z,11.50
2022-10-19T09:14:36.288Z,10.30
2022-10-19T09:18:37.248Z,11.70
2022-10-19T09:22:40.423Z,12.90
2022-10-19T09:26:51.378Z,11.90
2022-10-19T09:30:55.728Z,11.50
2022-10-19T09:35:02.917Z,11.20
2022-10-19T09:39:04.294Z,11.50
2022-10-19T09:43:09.408Z,12.00
2022-10-19T09:47:36.211Z,11.20
2022-10-19T09:51:52.301Z,12.60
2022-10-19T09:56:00.435Z,11.70
2022-10-19T10:00:01.721Z,11.80
2022-10-19T10:04:07.687Z,11.80
2022-10-19T10:08:18.403Z,11.70
2022-10-19T10:12:22.129Z,11.20
2022-10-19T10:16:26.207Z,12.10
2022-10-19T10:20:29.795Z,12.20
2022-10-19T10:24:33.398Z,12.40
2022-10-19T10:28:38.263Z,12.70
2022-10-19T10:32:45.771Z,12.30
2022-10-19T10:36:49.681Z,11.90
2022-10-19T10:41:03.677Z,12.30
2022-10-19T10:45:11.517Z,12.60
2022-10-19T10:49:31.219Z,12.70
2022-10-19T10:53:39.097Z,12.80
2022-10-19T10:57:47.061Z,13.70
2022-10-19T11:02:13.745Z,13.20
2022-10-19T11:06:16.744Z,13.20
2022-10-19T11:10:36.901Z,13.40
2022-10-19T11:15:18.428Z,13.60
2022-10-19T11:19:35.283Z,13.90
2022-10-19T11:23:49.335Z,14.20
2022-10-19T11:28:11.163Z,13.70
2022-10-19T11:32:22.417Z,13.90
2022-10-19T11:36:39.361Z,13.80
2022-10-19T11:41:17.456Z,14.20
2022-10-19T11:45:27.064Z,14.00
2022-10-19T11:49:32.090Z,14.00
2022-10-19T11:53:49.139Z,14.70
2022-10-19T11:58:19.636Z,14.50
2022-10-19T12:02:59.371Z,14.70
2022-10-19T12:07:07.001Z,15.10
2022-10-19T12:11:41.265Z,15.50
2022-10-19T12:15:46.057Z,14.70
2022-10-19T12:19:51.011Z,14.30
2022-10-19T12:23:54.150Z,14.70
2022-10-19T12:27:56.945Z,14.80
2022-10-19T12:32:00.523Z,14.70
2022-10-19T12:36:23.942Z,15.30
2022-10-19T12:40:37.901Z,15.50
2022-10-19T12:44:43.089Z,15.30
2022-10-19T12:48:44.107Z,15.20
2022-10-19T12:52:48.672Z,16.60
2022-10-19T12:56:53.157Z,15.60
2022-10-19T13:01:03.854Z,15.80
2022-10-19T13:05:05.829Z,15.70
2022-10-19T13:09:09.164Z,18.20
2022-10-19T13:13:30.951Z,18.80
2022-10-19T13:17:39.837Z,18.80
2022-10-19T13:21:47.401Z,16.60
2022-10-19T13:25:52.198Z,16.30
2022-10-19T13:29:53.840Z,16.20
2022-10-19T13:33:55.497Z,16.20
2022-10-19T13:38:18.652Z,16.50
2022-10-19T13:42:26.269Z,18.10
2022-10-19T13:46:33.959Z,17.80
2022-10-19T13:50:47.883Z,18.40
2022-10-19T13:55:12.635Z,17.70
2022-10-19T13:59:35.545Z,16.50
2022-10-19T14:03:58.310Z,17.80
2022-10-19T14:08:23.911Z,17.70
2022-10-19T14:12:28.460Z,18.20
2022-10-19T14:16:29.605Z,18.50
2022-10-19T14:20:34.230Z,18.40
2022-10-19T14:24:36.293Z,17.20
2022-10-19T14:28:39.261Z,17.00
2022-10-19T14:36:47.767Z,18.30
2022-10-19T14:40:49.043Z,17.80
2022-10-19T14:44:50.081Z,17.40
2022-10-19T14:48:53.518Z,17.30
2022-10-19T14:53:04.024Z,17.80
2022-10-19T14:57:15.311Z,18.80
2022-10-19T15:01:17.912Z,18.60
2022-10-19T15:05:22.408Z,18.40
2022-10-19T15:09:43.712Z,18.00
2022-10-19T15:13:41.013Z,18.10
2022-10-19T15:18:00.993Z,16.80
2022-10-19T15:22:25.948Z,17.30
2022-10-19T15:26:29.255Z,15.20
2022-10-19T15:30:32.338Z,14.20
2022-10-19T15:34:35.081Z,14.40
2022-10-19T15:38:38.919Z,14.10
2022-10-19T15:42:45.339Z,14.40
2022-10-19T15:46:51.977Z,14.20
2022-10-19T15:50:56.237Z,14.20
2022-10-19T15:54:59.605Z,14.10
2022-10-19T15:59:04.317Z,14.60
2022-10-19T16:03:05.489Z,14.70
2022-10-19T16:07:08.419Z,16.60
2022-10-19T16:11:13.383Z,16.30
2022-10-19T16:15:17.881Z,16.20
2022-10-19T16:19:18.883Z,16.00
2022-10-19T16:27:21.321Z,16.10
2022-10-19T16:31:23.483Z,16.40
2022-10-19T16:35:25.008Z,16.70
2022-10-19T16:39:26.319Z,17.20
2022-10-19T16:43:28.960Z,17.40
2022-10-19T16:47:30.137Z,16.90
2022-10-19T16:51:37.309Z,17.00
2022-10-19T16:55:39.984Z,16.90
2022-10-19T16:59:42.163Z,14.90
2022-10-19T17:03:44.945Z,16.10
2022-10-19T17:07:46.386Z,16.60
2022-10-19T17:11:48.471Z,17.10
2022-10-19T17:15:49.840Z,16.70
2022-10-19T17:19:50.854Z,16.90
2022-10-19T17:23:53.938Z,17.10
2022-10-19T17:27:55.047Z,15.20
2022-10-19T17:31:57.261Z,15.80
2022-10-19T17:36:07.055Z,15.10
2022-10-19T17:40:09.143Z,15.20
2022-10-19T17:44:10.625Z,14.70
2022-10-19T17:48:11.997Z,14.80
2022-10-19T17:52:13.726Z,15.30
2022-10-19T17:56:18.757Z,15.80
2022-10-19T18:00:21.645Z,14.60
2022-10-19T18:04:22.867Z,14.40
2022-10-19T18:08:24.401Z,15.80
2022-10-19T18:12:26.365Z,15.80
2022-10-19T18:16:34.367Z,14.90
2022-10-19T18:20:41.113Z,14.60
2022-10-19T18:24:42.735Z,15.00
2022-10-19T18:28:43.848Z,14.50
2022-10-19T18:32:49.763Z,15.00
2022-10-19T18:36:52.129Z,15.50
2022-10-19T18:40:53.837Z,15.80
2022-10-19T18:44:57.429Z,15.90
2022-10-19T18:49:07.284Z,15.50
2022-10-19T18:53:09.938Z,15.30
2022-10-19T18:57:12.739Z,14.70
2022-10-19T19:01:16.787Z,14.90
2022-10-19T19:05:17.834Z,15.00
2022-10-19T19:09:19.603Z,14.20
2022-10-19T19:13:21.287Z,14.60
2022-10-19T19:17:22.464Z,14.60
2022-10-19T19:21:26.350Z,15.00
2022-10-19T19:25:27.836Z,14.70
2022-10-19T19:29:29.859Z,14.20
2022-10-19T19:33:31.388Z,14.30
2022-10-19T19:37:34.912Z,15.20
2022-10-19T19:41:36.483Z,15.40
2022-10-19T19:45:38.309Z,15.20
2022-10-19T19:49:40.111Z,15.00
2022-10-19T19:53:41.501Z,15.00
2022-10-19T19:57:43.120Z,14.80
2022-10-19T20:01:44.778Z,14.90
2022-10-19T20:05:46.375Z,14.60
2022-10-19T20:09:47.492Z,14.40
2022-10-19T20:13:49.123Z,14.20
2022-10-19T20:17:50.347Z,14.70
2022-10-19T20:21:52.565Z,14.70
2022-10-19T20:25:55.737Z,14.30
2022-10-19T20:29:58.077Z,14.70
2022-10-19T20:33:59.056Z,14.50
2022-10-19T20:38:00.094Z,14.40
2022-10-19T20:42:01.056Z,14.80
2022-10-19T20:46:05.277Z,14.60
2022-10-19T20:50:07.888Z,14.70
2022-10-19T20:54:12.178Z,14.30
2022-10-19T20:58:13.342Z,14.50
2022-10-19T21:02:14.436Z,14.60
2022-10-19T21:06:16.543Z,14.30
2022-10-19T21:10:17.621Z,14.40
2022-10-19T21:14:25.266Z,14.50
2022-10-19T21:18:24.480Z,14.10
2022-10-19T21:22:25.456Z,13.00
2022-10-19T21:26:29.983Z,13.80
2022-10-19T21:30:30.987Z,14.30
2022-10-19T21:34:32.132Z,13.90
2022-10-19T21:38:33.838Z,13.70
2022-10-19T21:42:35.085Z,13.40
2022-10-19T21:46:36.048Z,13.60
2022-10-19T21:50:37.051Z,14.50
2022-10-19T21:54:38.078Z,13.80
2022-10-19T21:58:47.863Z,13.10
2022-10-19T22:02:48.993Z,13.60
2022-10-19T22:06:50.480Z,13.00
2022-10-19T22:10:52.449Z,12.20
2022-10-19T22:14:53.743Z,12.50
2022-10-19T22:18:54.867Z,13.70
2022-10-19T22:22:55.828Z,13.30
2022-10-19T22:26:56.918Z,13.00
2022-10-19T22:30:58.513Z,12.80
2022-10-19T22:34:59.464Z,13.00
2022-10-19T22:39:00.426Z,13.10
2022-10-19T22:43:04.893Z,11.90
2022-10-19T22:47:04.437Z,12.20
2022-10-19T22:51:05.708Z,11.70
2022-10-19T22:55:07.332Z,12.70
2022-10-19T22:59:08.934Z,11.60
2022-10-19T23:03:10.253Z,12.30
2022-10-19T23:11:13.362Z,11.90
2022-10-19T23:15:14.519Z,12.00
2022-10-19T23:19:15.445Z,12.10
2022-10-19T23:23:16.531Z,12.10
2022-10-19T23:27:17.476Z,11.90
2022-10-19T23:31:25.443Z,12.20
2022-10-19T23:35:26.405Z,11.80
2022-10-19T23:39:27.459Z,12.10
2022-10-19T23:43:28.887Z,11.70
2022-10-19T23:47:29.963Z,11.60
2022-10-19T23:51:30.936Z,12.20
2022-10-19T23:55:31.912Z,11.40
2022-10-19T23:59:33.524Z,12.30
